createdAt,value
2023-03-20T00:00:12.013Z,95325.00
2023-03-20T00:04:12.166Z,95327.00
2023-03-20T00:08:12.168Z,95327.00
2023-03-20T00:12:12.199Z,95332.00
2023-03-20T00:16:12.269Z,95330.00
2023-03-20T00:20:12.368Z,95336.00
2023-03-20T00:24:12.438Z,95338.00
2023-03-20T00:28:12.543Z,95340.00
2023-03-20T00:32:12.607Z,95342.00
2023-03-20T00:36:12.710Z,95340.00
2023-03-20T00:40:12.807Z,95338.00
2023-03-20T00:44:12.971Z,95340.00
2023-03-20T00:48:13.169Z,95338.00
2023-03-20T00:52:13.252Z,95336.00
2023-03-20T00:56:13.348Z,95338.00
2023-03-20T01:00:13.550Z,95334.00
2023-03-20T01:04:13.506Z,95334.00
2023-03-20T01:08:13.458Z,95336.00
2023-03-20T01:12:13.435Z,95340.00
2023-03-20T01:16:13.417Z,95338.00
2023-03-20T01:20:13.376Z,95340.00
2023-03-20T01:24:13.346Z,95336.00
2023-03-20T01:28:13.322Z,95340.00
2023-03-20T01:32:13.255Z,95342.00
2023-03-20T01:36:13.299Z,95340.00
2023-03-20T01:40:13.197Z,95344.00
2023-03-20T01:44:13.145Z,95340.00
2023-03-20T01:48:13.108Z,95344.00
2023-03-20T01:52:13.063Z,95344.00
2023-03-20T01:56:13.028Z,95344.00
2023-03-20T02:00:12.993Z,95346.00
2023-03-20T02:04:12.977Z,95344.00
2023-03-20T02:08:12.946Z,95342.00
2023-03-20T02:12:12.914Z,95340.00
2023-03-20T02:16:12.826Z,95338.00
2023-03-20T02:20:12.865Z,95340.00
2023-03-20T02:24:12.848Z,95344.00
2023-03-20T02:28:12.787Z,95344.00
2023-03-20T02:32:12.762Z,95346.00
2023-03-20T02:36:12.759Z,95344.00
2023-03-20T02:40:12.685Z,95344.00
2023-03-20T02:44:12.660Z,95340.00
2023-03-20T02:48:12.616Z,95342.00
2023-03-20T02:52:12.568Z,95342.00
2023-03-20T02:56:12.549Z,95342.00
2023-03-20T03:00:12.632Z,95340.00
2023-03-20T03:04:13.124Z,95340.00
2023-03-20T03:08:12.886Z,95344.00
2023-03-20T03:12:12.918Z,95346.00
2023-03-20T03:16:13.082Z,95350.00
2023-03-20T03:20:13.075Z,95352.00
2023-03-20T03:24:13.050Z,95350.00
2023-03-20T03:28:13.018Z,95350.00
2023-03-20T03:32:12.974Z,95348.00
2023-03-20T03:36:13.006Z,95348.00
2023-03-20T03:40:12.922Z,95350.00
2023-03-20T03:44:12.870Z,95352.00
2023-03-20T03:48:12.855Z,95352.00
2023-03-20T03:52:12.795Z,95362.00
2023-03-20T03:56:12.865Z,95362.00
2023-03-20T04:00:12.728Z,95362.00
2023-03-20T04:04:12.733Z,95362.00
2023-03-20T04:08:12.672Z,95362.00
2023-03-20T04:12:12.618Z,95364.00
2023-03-20T04:16:12.580Z,95370.00
2023-03-20T04:20:12.574Z,95374.00
2023-03-20T04:24:12.537Z,95376.00
2023-03-20T04:28:12.508Z,95374.00
2023-03-20T04:32:12.456Z,95379.00
2023-03-20T04:36:12.433Z,95379.00
2023-03-20T04:40:12.396Z,95385.00
2023-03-20T04:44:12.346Z,95389.00
2023-03-20T04:48:12.260Z,95391.00
2023-03-20T04:52:12.254Z,95393.00
2023-03-20T04:56:12.222Z,95393.00
2023-03-20T05:00:12.222Z,95399.00
2023-03-20T05:04:12.228Z,95399.00
2023-03-20T05:08:12.124Z,95403.00
2023-03-20T05:12:12.126Z,95405.00
2023-03-20T05:16:12.079Z,95407.00
2023-03-20T05:20:12.001Z,95403.00
2023-03-20T05:24:11.984Z,95417.00
2023-03-20T05:28:11.991Z,95417.00
2023-03-20T05:32:11.915Z,95421.00
2023-03-20T05:36:11.927Z,95432.00
2023-03-20T05:40:11.829Z,95427.00
2023-03-20T05:44:11.784Z,95427.00
2023-03-20T05:48:11.822Z,95432.00
2023-03-20T05:52:11.948Z,95432.00
2023-03-20T05:56:12.030Z,95430.00
2023-03-20T06:00:12.124Z,95432.00
2023-03-20T06:04:12.212Z,95442.00
2023-03-20T06:08:12.233Z,95440.00
2023-03-20T06:12:12.702Z,95436.00
2023-03-20T06:16:12.385Z,95440.00
2023-03-20T06:20:12.349Z,95444.00
2023-03-20T06:24:12.456Z,95446.00
2023-03-20T06:28:12.424Z,95454.00
2023-03-20T06:32:12.938Z,95452.00
2023-03-20T06:36:12.579Z,95446.00
2023-03-20T06:40:12.529Z,95450.00
2023-03-20T06:44:12.564Z,95450.00
2023-03-20T06:48:12.611Z,95456.00
2023-03-20T06:52:12.562Z,95466.00
2023-03-20T06:56:12.578Z,95470.00
2023-03-20T07:00:12.563Z,95477.00
2023-03-20T07:04:12.571Z,95479.00
2023-03-20T07:08:12.575Z,95479.00
2023-03-20T07:12:12.584Z,95485.00
2023-03-20T07:16:12.703Z,95493.00
2023-03-20T07:20:12.652Z,95493.00
2023-03-20T07:24:12.784Z,95489.00
2023-03-20T07:28:12.723Z,95495.00
2023-03-20T07:32:12.672Z,95499.00
2023-03-20T07:36:12.656Z,95495.00
2023-03-20T07:40:12.640Z,95489.00
2023-03-20T07:44:12.576Z,95485.00
2023-03-20T07:48:12.561Z,95493.00
2023-03-20T07:52:12.489Z,95499.00
2023-03-20T07:56:12.474Z,95499.00
2023-03-20T08:00:12.495Z,95497.00
2023-03-20T08:04:12.482Z,95497.00
2023-03-20T08:08:12.390Z,95491.00
2023-03-20T08:12:12.546Z,95493.00
2023-03-20T08:16:12.638Z,95493.00
2023-03-20T08:20:12.644Z,95497.00
2023-03-20T08:24:12.697Z,95497.00
2023-03-20T08:28:12.424Z,95499.00
2023-03-20T08:32:12.375Z,95497.00
2023-03-20T08:36:12.317Z,95501.00
2023-03-20T08:40:12.307Z,95499.00
2023-03-20T08:44:12.274Z,95495.00
2023-03-20T08:48:12.335Z,95487.00
2023-03-20T08:52:12.220Z,95483.00
2023-03-20T08:56:12.180Z,95485.00
2023-03-20T09:00:12.139Z,95489.00
2023-03-20T09:04:12.050Z,95495.00
2023-03-20T09:08:12.040Z,95487.00
2023-03-20T09:12:12.072Z,95487.00
2023-03-20T09:16:14.787Z,95487.00
2023-03-20T09:20:11.937Z,95487.00
2023-03-20T09:24:11.891Z,95481.00
2023-03-20T09:28:11.879Z,95483.00
2023-03-20T09:32:11.865Z,95477.00
2023-03-20T09:36:11.959Z,95476.00
2023-03-20T09:40:11.756Z,95470.00
2023-03-20T09:44:11.753Z,95460.00
2023-03-20T09:48:11.733Z,95458.00
2023-03-20T09:52:11.649Z,95450.00
2023-03-20T09:56:11.601Z,95444.00
2023-03-20T10:00:11.609Z,95442.00
2023-03-20T10:04:12.302Z,95438.00
2023-03-20T10:08:11.550Z,95429.00
2023-03-20T10:12:11.413Z,95423.00
2023-03-20T10:16:11.474Z,95423.00
2023-03-20T10:20:11.422Z,95425.00
2023-03-20T10:24:11.447Z,95421.00
2023-03-20T10:28:11.400Z,95421.00
2023-03-20T10:32:11.342Z,95419.00
2023-03-20T10:36:11.351Z,95419.00
2023-03-20T10:40:11.345Z,95407.00
2023-03-20T10:44:11.289Z,95403.00
2023-03-20T10:48:11.332Z,95399.00
2023-03-20T10:52:11.161Z,95387.00
2023-03-20T10:56:11.164Z,95383.00
2023-03-20T11:00:11.182Z,95381.00
2023-03-20T11:04:11.087Z,95381.00
2023-03-20T11:08:11.054Z,95379.00
2023-03-20T11:12:11.047Z,95379.00
2023-03-20T11:16:11.097Z,95374.00
2023-03-20T11:20:10.897Z,95370.00
2023-03-20T11:24:11.724Z,95364.00
2023-03-20T11:28:10.911Z,95356.00
2023-03-20T11:32:10.921Z,95344.00
2023-03-20T11:36:10.877Z,95342.00
2023-03-20T11:40:10.880Z,95344.00
2023-03-20T11:44:10.990Z,95342.00
2023-03-20T11:48:11.135Z,95338.00
2023-03-20T11:52:11.238Z,95332.00
2023-03-20T11:56:11.398Z,95325.00
2023-03-20T12:00:11.536Z,95315.00
2023-03-20T12:04:11.714Z,95311.00
2023-03-20T12:08:11.905Z,95313.00
2023-03-20T12:12:12.066Z,95307.00
2023-03-20T12:16:12.196Z,95305.00
2023-03-20T12:20:12.258Z,95305.00
2023-03-20T12:24:12.301Z,95303.00
2023-03-20T12:28:12.390Z,95301.00
2023-03-20T12:32:12.450Z,95303.00
2023-03-20T12:36:12.536Z,95303.00
2023-03-20T12:40:12.763Z,95299.00
2023-03-20T12:44:12.796Z,95295.00
2023-03-20T12:48:12.926Z,95295.00
2023-03-20T12:52:12.956Z,95293.00
2023-03-20T12:56:13.004Z,95293.00
2023-03-20T13:00:13.376Z,95293.00
2023-03-20T13:04:13.141Z,95291.00
2023-03-20T13:08:13.206Z,95289.00
2023-03-20T13:12:13.212Z,95287.00
2023-03-20T13:16:13.404Z,95287.00
2023-03-20T13:20:13.378Z,95289.00
2023-03-20T13:24:13.601Z,95289.00
2023-03-20T13:28:13.609Z,95291.00
2023-03-20T13:32:13.904Z,95287.00
2023-03-20T13:36:13.787Z,95287.00
2023-03-20T13:40:13.807Z,95285.00
2023-03-20T13:44:13.721Z,95282.00
2023-03-20T13:48:13.749Z,95282.00
2023-03-20T13:52:13.715Z,95282.00
2023-03-20T13:56:13.623Z,95280.00
2023-03-20T14:00:13.535Z,95272.00
2023-03-20T14:04:23.978Z,95280.00
2023-03-20T14:08:13.410Z,95278.00
2023-03-20T14:12:13.407Z,95270.00
2023-03-20T14:16:13.364Z,95268.00
2023-03-20T14:20:13.271Z,95266.00
2023-03-20T14:24:13.343Z,95270.00
2023-03-20T14:28:13.321Z,95276.00
2023-03-20T14:32:13.305Z,95280.00
2023-03-20T14:36:13.263Z,95278.00
2023-03-20T14:40:13.231Z,95278.00
2023-03-20T14:44:13.165Z,95276.00
2023-03-20T14:48:13.165Z,95276.00
2023-03-20T14:52:13.156Z,95272.00
2023-03-20T14:56:13.098Z,95272.00
2023-03-20T15:00:13.006Z,95272.00
2023-03-20T15:04:12.992Z,95270.00
2023-03-20T15:08:12.970Z,95264.00
2023-03-20T15:12:12.917Z,95268.00
2023-03-20T15:16:13.058Z,95264.00
2023-03-20T15:20:12.889Z,95260.00
2023-03-20T15:24:13.079Z,95262.00
2023-03-20T15:28:12.801Z,95260.00
2023-03-20T15:32:14.783Z,95264.00
2023-03-20T15:36:12.937Z,95262.00
2023-03-20T15:40:12.713Z,95266.00
2023-03-20T15:44:12.717Z,95258.00
2023-03-20T15:48:12.661Z,95256.00
2023-03-20T15:52:12.606Z,95258.00
2023-03-20T15:56:18.235Z,95256.00
2023-03-20T16:00:13.605Z,95260.00
2023-03-20T16:04:12.537Z,95256.00
2023-03-20T16:08:12.470Z,95256.00
2023-03-20T16:12:12.409Z,95254.00
2023-03-20T16:16:12.496Z,95244.00
2023-03-20T16:20:12.383Z,95246.00
2023-03-20T16:24:12.314Z,95248.00
2023-03-20T16:28:12.308Z,95244.00
2023-03-20T16:32:12.314Z,95246.00
2023-03-20T16:36:12.460Z,95246.00
2023-03-20T16:40:12.568Z,95246.00
2023-03-20T16:44:12.746Z,95252.00
2023-03-20T16:48:12.820Z,95252.00
2023-03-20T16:52:12.998Z,95254.00
2023-03-20T16:56:24.974Z,95254.00
2023-03-20T17:00:23.512Z,95260.00
2023-03-20T17:04:13.270Z,95260.00
2023-03-20T17:08:13.073Z,95266.00
2023-03-20T17:12:12.994Z,95268.00
2023-03-20T17:16:13.105Z,95270.00
2023-03-20T17:20:12.955Z,95270.00
2023-03-20T17:24:12.925Z,95274.00
2023-03-20T17:28:12.893Z,95274.00
2023-03-20T17:32:12.921Z,95278.00
2023-03-20T17:36:12.800Z,95280.00
2023-03-20T17:40:12.785Z,95282.00
2023-03-20T17:44:12.826Z,95283.00
2023-03-20T17:48:12.784Z,95289.00
2023-03-20T17:52:12.704Z,95295.00
2023-03-20T17:56:12.962Z,95299.00
2023-03-20T18:04:32.620Z,95303.00
2023-03-20T18:08:32.578Z,95309.00
2023-03-20T18:12:32.518Z,95309.00
2023-03-20T18:16:32.536Z,95311.00
2023-03-20T18:20:32.459Z,95313.00
2023-03-20T18:24:32.462Z,95317.00
2023-03-20T18:28:32.383Z,95321.00
2023-03-20T18:32:32.299Z,95327.00
2023-03-20T18:36:32.333Z,95323.00
2023-03-20T18:40:32.557Z,95329.00
2023-03-20T18:44:32.494Z,95340.00
2023-03-20T18:48:32.899Z,95346.00
2023-03-20T18:52:32.568Z,95342.00
2023-03-20T18:56:32.645Z,95346.00
2023-03-20T19:00:32.600Z,95354.00
2023-03-20T19:04:32.759Z,95354.00
2023-03-20T19:08:32.702Z,95358.00
2023-03-20T19:12:33.440Z,95364.00
2023-03-20T19:16:32.986Z,95362.00
2023-03-20T19:20:33.048Z,95366.00
2023-03-20T19:24:33.300Z,95366.00
2023-03-20T19:28:41.636Z,95374.00
2023-03-20T19:32:34.416Z,95377.00
2023-03-20T19:36:33.336Z,95381.00
2023-03-20T19:40:34.326Z,95383.00
2023-03-20T19:44:33.334Z,95389.00
2023-03-20T19:48:46.939Z,95389.00
2023-03-20T19:52:34.541Z,95391.00
2023-03-20T19:56:33.460Z,95395.00
2023-03-20T20:01:00.669Z,95397.00
2023-03-20T20:04:34.641Z,95399.00
2023-03-20T20:08:47.005Z,95393.00
2023-03-20T20:17:03.675Z,95397.00
2023-03-20T20:21:45.552Z,95395.00
2023-03-20T20:24:54.305Z,95395.00
2023-03-20T20:28:53.225Z,95397.00
2023-03-20T20:32:54.360Z,95399.00
2023-03-20T20:40:53.373Z,95403.00
2023-03-20T20:44:53.353Z,95405.00
2023-03-20T20:48:53.838Z,95405.00
2023-03-20T20:52:53.614Z,95415.00
2023-03-20T20:56:53.257Z,95407.00
2023-03-20T21:00:55.322Z,95419.00
2023-03-20T21:04:53.418Z,95421.00
2023-03-20T21:08:53.578Z,95423.00
2023-03-20T21:12:59.573Z,95425.00
2023-03-20T21:16:54.627Z,95425.00
2023-03-20T21:20:53.622Z,95427.00
2023-03-20T21:25:00.766Z,95425.00
2023-03-20T21:28:54.423Z,95429.00
2023-03-20T21:32:53.506Z,95429.00
2023-03-20T21:36:53.415Z,95429.00
2023-03-20T21:40:53.600Z,95429.00
2023-03-20T21:45:44.694Z,95430.00
2023-03-20T21:53:31.929Z,95430.00
2023-03-20T21:57:30.650Z,95430.00
2023-03-20T22:05:41.948Z,95432.00
2023-03-20T22:13:39.087Z,95434.00
2023-03-20T22:17:51.327Z,95438.00
2023-03-20T22:29:39.438Z,95429.00
2023-03-20T22:37:52.683Z,95425.00
2023-03-20T22:45:01.283Z,95423.00
2023-03-20T22:48:53.788Z,95423.00
2023-03-20T22:52:52.768Z,95425.00
2023-03-20T22:56:52.720Z,95423.00
2023-03-20T23:00:52.715Z,95407.00
2023-03-20T23:04:52.675Z,95407.00
2023-03-20T23:08:55.480Z,95415.00
2023-03-20T23:13:02.664Z,95417.00
2023-03-20T23:16:52.617Z,95419.00
2023-03-20T23:20:52.472Z,95423.00
2023-03-20T23:24:53.590Z,95417.00
2023-03-20T23:28:52.442Z,95407.00
2023-03-20T23:32:52.425Z,95405.00
2023-03-20T23:36:52.568Z,95405.00
2023-03-20T23:40:52.415Z,95395.00
2023-03-20T23:44:56.385Z,95391.00
2023-03-20T23:48:53.277Z,95387.00
2023-03-20T23:53:13.593Z,95389.00
2023-03-20T23:56:53.228Z,95395.00
